sensor_id;sensor_type;location;lat;lon;timestamp;pressure;altitude;pressure_sealevel;temperature;humidity
28510;BME280;15723;55.684;37.928;2023-01-28T00:00:09;100784.44;;;0.89;81.36
28510;BME280;15723;55.684;37.928;2023-01-28T00:02:36;100784.69;;;0.63;81.57
28510;BME280;15723;55.684;37.928;2023-01-28T00:05:02;100784.53;;;0.80;81.14
28510;BME280;15723;55.684;37.928;2023-01-28T00:07:29;100783.63;;;0.81;81.06
28510;BME280;15723;55.684;37.928;2023-01-28T00:09:56;100782.56;;;0.96;81.35
28510;BME280;15723;55.684;37.928;2023-01-28T00:12:22;100783.72;;;0.75;81.39
28510;BME280;15723;55.684;37.928;2023-01-28T00:14:49;100787.25;;;0.77;81.18
28510;BME280;15723;55.684;37.928;2023-01-28T00:17:16;100777.41;;;0.80;82.03
28510;BME280;15723;55.684;37.928;2023-01-28T00:19:42;100782.84;;;0.70;81.91
28510;BME280;15723;55.684;37.928;2023-01-28T00:22:09;100779.13;;;0.86;81.54
28510;BME280;15723;55.684;37.928;2023-01-28T00:24:36;100781.91;;;0.75;81.74
28510;BME280;15723;55.684;37.928;2023-01-28T00:27:02;100789.19;;;0.58;82.06
28510;BME280;15723;55.684;37.928;2023-01-28T00:29:28;100781.91;;;0.77;81.88
28510;BME280;15723;55.684;37.928;2023-01-28T00:31:54;100779.22;;;0.78;81.00
28510;BME280;15723;55.684;37.928;2023-01-28T00:34:21;100786.00;;;1.07;80.44
28510;BME280;15723;55.684;37.928;2023-01-28T00:36:47;100777.59;;;0.60;80.96
28510;BME280;15723;55.684;37.928;2023-01-28T00:39:23;100785.53;;;0.67;80.76
28510;BME280;15723;55.684;37.928;2023-01-28T00:41:53;100777.44;;;0.79;81.27
28510;BME280;15723;55.684;37.928;2023-01-28T00:44:19;100787.53;;;0.48;81.28
28510;BME280;15723;55.684;37.928;2023-01-28T00:46:47;100797.31;;;0.50;81.04
28510;BME280;15723;55.684;37.928;2023-01-28T00:49:13;100791.78;;;0.66;81.16
28510;BME280;15723;55.684;37.928;2023-01-28T00:51:40;100792.63;;;0.71;80.75
28510;BME280;15723;55.684;37.928;2023-01-28T00:54:07;100792.81;;;0.54;81.10
28510;BME280;15723;55.684;37.928;2023-01-28T00:56:33;100804.53;;;0.36;81.28
28510;BME280;15723;55.684;37.928;2023-01-28T00:59:01;100795.44;;;0.58;80.97
28510;BME280;15723;55.684;37.928;2023-01-28T01:01:28;100799.97;;;0.49;80.44
28510;BME280;15723;55.684;37.928;2023-01-28T01:03:54;100796.53;;;0.39;80.62
28510;BME280;15723;55.684;37.928;2023-01-28T01:06:31;100795.28;;;0.72;79.73
28510;BME280;15723;55.684;37.928;2023-01-28T01:08:58;100792.06;;;0.38;79.97
28510;BME280;15723;55.684;37.928;2023-01-28T01:11:25;100791.13;;;0.45;79.48
28510;BME280;15723;55.684;37.928;2023-01-28T01:13:53;100798.31;;;0.39;78.79
28510;BME280;15723;55.684;37.928;2023-01-28T01:16:22;100806.03;;;0.66;78.40
28510;BME280;15723;55.684;37.928;2023-01-28T01:18:51;100798.00;;;0.69;78.89
28510;BME280;15723;55.684;37.928;2023-01-28T01:21:20;100796.44;;;0.48;78.52
28510;BME280;15723;55.684;37.928;2023-01-28T01:23:47;100795.63;;;0.39;79.27
28510;BME280;15723;55.684;37.928;2023-01-28T01:26:14;100798.16;;;0.54;79.03
28510;BME280;15723;55.684;37.928;2023-01-28T01:28:41;100805.50;;;0.26;78.58
28510;BME280;15723;55.684;37.928;2023-01-28T01:31:13;100803.66;;;0.34;79.09
28510;BME280;15723;55.684;37.928;2023-01-28T01:33:44;100804.38;;;0.54;78.72
28510;BME280;15723;55.684;37.928;2023-01-28T01:36:12;100800.56;;;0.80;77.70
28510;BME280;15723;55.684;37.928;2023-01-28T01:38:38;100803.47;;;0.55;78.18
28510;BME280;15723;55.684;37.928;2023-01-28T01:41:06;100799.13;;;0.47;78.28
28510;BME280;15723;55.684;37.928;2023-01-28T01:43:51;100805.50;;;0.29;79.09
28510;BME280;15723;55.684;37.928;2023-01-28T01:46:26;100795.66;;;0.34;79.16
28510;BME280;15723;55.684;37.928;2023-01-28T01:48:56;100788.41;;;0.48;78.66
28510;BME280;15723;55.684;37.928;2023-01-28T01:51:30;100793.94;;;0.25;78.28
28510;BME280;15723;55.684;37.928;2023-01-28T01:53:58;100797.25;;;0.55;78.01
28510;BME280;15723;55.684;37.928;2023-01-28T01:56:31;100791.13;;;0.45;77.96
28510;BME280;15723;55.684;37.928;2023-01-28T01:58:59;100790.34;;;0.28;78.22
28510;BME280;15723;55.684;37.928;2023-01-28T02:01:28;100791.34;;;0.19;78.59
28510;BME280;15723;55.684;37.928;2023-01-28T02:04:04;100794.56;;;0.56;77.97
28510;BME280;15723;55.684;37.928;2023-01-28T02:06:34;100792.59;;;0.77;77.02
28510;BME280;15723;55.684;37.928;2023-01-28T02:09:02;100795.63;;;0.40;77.12
28510;BME280;15723;55.684;37.928;2023-01-28T02:11:30;100794.81;;;0.29;77.92
28510;BME280;15723;55.684;37.928;2023-01-28T02:14:01;100791.72;;;0.76;76.82
28510;BME280;15723;55.684;37.928;2023-01-28T02:16:30;100803.56;;;0.48;76.95
28510;BME280;15723;55.684;37.928;2023-01-28T02:18:56;100803.63;;;0.37;77.03
28510;BME280;15723;55.684;37.928;2023-01-28T02:21:41;100804.63;;;0.27;77.72
28510;BME280;15723;55.684;37.928;2023-01-28T02:24:44;100810.84;;;0.27;77.65
28510;BME280;15723;55.684;37.928;2023-01-28T02:30:19;100804.66;;;0.21;78.19
28510;BME280;15723;55.684;37.928;2023-01-28T02:32:56;100802.97;;;0.14;78.09
28510;BME280;15723;55.684;37.928;2023-01-28T02:35:33;100808.22;;;0.21;77.62
28510;BME280;15723;55.684;37.928;2023-01-28T02:38:11;100804.78;;;0.09;78.09
28510;BME280;15723;55.684;37.928;2023-01-28T02:40:42;100805.69;;;0.05;78.50
28510;BME280;15723;55.684;37.928;2023-01-28T02:43:42;100802.09;;;0.10;78.22
28510;BME280;15723;55.684;37.928;2023-01-28T02:49:11;100814.41;;;0.28;78.54
28510;BME280;15723;55.684;37.928;2023-01-28T02:54:57;100817.28;;;0.04;78.57
28510;BME280;15723;55.684;37.928;2023-01-28T03:00:25;100827.09;;;0.00;78.61
28510;BME280;15723;55.684;37.928;2023-01-28T03:03:14;100830.63;;;0.04;78.41
28510;BME280;15723;55.684;37.928;2023-01-28T03:05:51;100830.56;;;0.11;78.38
28510;BME280;15723;55.684;37.928;2023-01-28T03:08:50;100837.09;;;-0.37;78.63
28510;BME280;15723;55.684;37.928;2023-01-28T03:11:40;100829.94;;;-0.30;78.87
28510;BME280;15723;55.684;37.928;2023-01-28T03:14:26;100835.28;;;-0.32;78.13
28510;BME280;15723;55.684;37.928;2023-01-28T03:17:17;100839.72;;;-0.28;77.66
28510;BME280;15723;55.684;37.928;2023-01-28T03:20:04;100846.03;;;-0.49;77.96
28510;BME280;15723;55.684;37.928;2023-01-28T03:22:52;100845.09;;;-0.43;77.43
28510;BME280;15723;55.684;37.928;2023-01-28T03:25:39;100853.13;;;-0.46;77.16
28510;BME280;15723;55.684;37.928;2023-01-28T03:28:27;100846.03;;;-0.50;76.96
28510;BME280;15723;55.684;37.928;2023-01-28T03:31:16;100849.66;;;-0.65;76.55
28510;BME280;15723;55.684;37.928;2023-01-28T03:34:03;100851.38;;;-0.53;76.51
28510;BME280;15723;55.684;37.928;2023-01-28T03:36:49;100861.13;;;-0.43;75.94
28510;BME280;15723;55.684;37.928;2023-01-28T03:39:45;100855.88;;;-0.61;75.62
28510;BME280;15723;55.684;37.928;2023-01-28T03:42:14;100853.16;;;-0.51;75.33
28510;BME280;15723;55.684;37.928;2023-01-28T03:45:06;100850.56;;;-0.65;75.05
28510;BME280;15723;55.684;37.928;2023-01-28T03:47:33;100845.25;;;-0.68;74.56
28510;BME280;15723;55.684;37.928;2023-01-28T03:50:01;100864.78;;;-0.66;74.80
28510;BME280;15723;55.684;37.928;2023-01-28T03:52:32;100855.94;;;-0.74;74.59
28510;BME280;15723;55.684;37.928;2023-01-28T03:55:37;100861.25;;;-0.69;74.95
28510;BME280;15723;55.684;37.928;2023-01-28T03:58:05;100860.34;;;-0.65;74.61
28510;BME280;15723;55.684;37.928;2023-01-28T04:00:31;100861.22;;;-0.65;74.62
28510;BME280;15723;55.684;37.928;2023-01-28T04:02:58;100858.63;;;-0.87;74.69
28510;BME280;15723;55.684;37.928;2023-01-28T04:05:24;100844.38;;;-0.83;74.56
28510;BME280;15723;55.684;37.928;2023-01-28T04:07:55;100850.44;;;-0.34;74.50
28510;BME280;15723;55.684;37.928;2023-01-28T04:10:46;100854.13;;;-0.72;74.79
28510;BME280;15723;55.684;37.928;2023-01-28T04:13:19;100863.94;;;-0.87;75.11
28510;BME280;15723;55.684;37.928;2023-01-28T04:15:46;100857.69;;;-0.77;75.38
28510;BME280;15723;55.684;37.928;2023-01-28T04:18:14;100865.69;;;-0.80;75.16
28510;BME280;15723;55.684;37.928;2023-01-28T04:20:41;100862.16;;;-0.84;75.19
28510;BME280;15723;55.684;37.928;2023-01-28T04:23:07;100867.56;;;-1.04;75.72
28510;BME280;15723;55.684;37.928;2023-01-28T04:25:34;100864.84;;;-0.88;75.55
28510;BME280;15723;55.684;37.928;2023-01-28T04:28:04;100862.13;;;-0.69;75.84
28510;BME280;15723;55.684;37.928;2023-01-28T04:30:30;100855.13;;;-1.05;75.94
28510;BME280;15723;55.684;37.928;2023-01-28T04:33:15;100858.69;;;-1.19;76.03
28510;BME280;15723;55.684;37.928;2023-01-28T04:35:52;100859.50;;;-0.84;76.00
28510;BME280;15723;55.684;37.928;2023-01-28T04:38:32;100855.09;;;-0.94;76.08
28510;BME280;15723;55.684;37.928;2023-01-28T04:41:17;100863.91;;;-0.80;75.70
28510;BME280;15723;55.684;37.928;2023-01-28T04:43:43;100865.78;;;-1.12;76.13
28510;BME280;15723;55.684;37.928;2023-01-28T04:46:18;100867.56;;;-1.10;76.54
28510;BME280;15723;55.684;37.928;2023-01-28T04:49:08;100869.38;;;-1.33;76.14
28510;BME280;15723;55.684;37.928;2023-01-28T04:51:52;100870.22;;;-1.22;76.15
28510;BME280;15723;55.684;37.928;2023-01-28T04:54:45;100875.50;;;-0.84;75.90
28510;BME280;15723;55.684;37.928;2023-01-28T04:57:11;100880.91;;;-1.23;76.04
28510;BME280;15723;55.684;37.928;2023-01-28T04:59:37;100880.88;;;-1.20;75.79
28510;BME280;15723;55.684;37.928;2023-01-28T05:02:04;100874.66;;;-1.13;76.23
28510;BME280;15723;55.684;37.928;2023-01-28T05:04:31;100880.00;;;-1.16;76.43
28510;BME280;15723;55.684;37.928;2023-01-28T05:06:58;100880.00;;;-1.19;76.57
28510;BME280;15723;55.684;37.928;2023-01-28T05:09:29;100878.25;;;-1.37;76.95
28510;BME280;15723;55.684;37.928;2023-01-28T05:11:55;100888.91;;;-1.39;76.75
28510;BME280;15723;55.684;37.928;2023-01-28T05:14:22;100889.78;;;-1.38;77.19
28510;BME280;15723;55.684;37.928;2023-01-28T05:17:15;100896.91;;;-1.45;76.81
28510;BME280;15723;55.684;37.928;2023-01-28T05:19:41;100895.13;;;-1.34;76.02
28510;BME280;15723;55.684;37.928;2023-01-28T05:22:16;100903.09;;;-1.53;76.07
28510;BME280;15723;55.684;37.928;2023-01-28T05:24:47;100903.13;;;-1.44;75.19
28510;BME280;15723;55.684;37.928;2023-01-28T05:27:14;100905.78;;;-1.43;74.82
28510;BME280;15723;55.684;37.928;2023-01-28T05:29:41;100906.66;;;-1.58;74.99
28510;BME280;15723;55.684;37.928;2023-01-28T05:32:07;100903.13;;;-1.46;75.16
28510;BME280;15723;55.684;37.928;2023-01-28T05:34:34;100906.66;;;-1.53;74.17
28510;BME280;15723;55.684;37.928;2023-01-28T05:37:06;100909.31;;;-1.53;74.30
28510;BME280;15723;55.684;37.928;2023-01-28T05:39:37;100907.53;;;-1.51;73.66
28510;BME280;15723;55.684;37.928;2023-01-28T05:42:04;100910.19;;;-1.66;73.26
28510;BME280;15723;55.684;37.928;2023-01-28T05:44:33;100903.97;;;-1.54;73.35
28510;BME280;15723;55.684;37.928;2023-01-28T05:47:15;100897.78;;;-1.63;74.17
28510;BME280;15723;55.684;37.928;2023-01-28T05:49:54;100900.44;;;-1.63;74.59
28510;BME280;15723;55.684;37.928;2023-01-28T05:52:35;100898.69;;;-1.45;74.03
28510;BME280;15723;55.684;37.928;2023-01-28T05:55:03;100896.91;;;-1.46;73.83
28510;BME280;15723;55.684;37.928;2023-01-28T05:57:33;100906.63;;;-1.50;73.76
28510;BME280;15723;55.684;37.928;2023-01-28T06:00:00;100906.66;;;-1.53;73.08
28510;BME280;15723;55.684;37.928;2023-01-28T06:02:30;100907.53;;;-1.23;72.90
28510;BME280;15723;55.684;37.928;2023-01-28T06:04:59;100911.97;;;-1.70;73.35
28510;BME280;15723;55.684;37.928;2023-01-28T06:07:25;100917.31;;;-1.45;73.40
28510;BME280;15723;55.684;37.928;2023-01-28T06:09:51;100926.19;;;-1.45;73.38
28510;BME280;15723;55.684;37.928;2023-01-28T06:12:21;100927.06;;;-1.61;73.51
28510;BME280;15723;55.684;37.928;2023-01-28T06:15:10;100928.81;;;-1.72;74.12
28510;BME280;15723;55.684;37.928;2023-01-28T06:17:55;100928.84;;;-1.60;74.04
28510;BME280;15723;55.684;37.928;2023-01-28T06:20:26;100933.25;;;-1.67;74.53
28510;BME280;15723;55.684;37.928;2023-01-28T06:22:53;100925.31;;;-1.35;73.86
28510;BME280;15723;55.684;37.928;2023-01-28T06:25:20;100931.53;;;-1.46;73.66
28510;BME280;15723;55.684;37.928;2023-01-28T06:27:46;100929.72;;;-1.64;73.55
28510;BME280;15723;55.684;37.928;2023-01-28T06:30:14;100929.75;;;-1.44;73.33
28510;BME280;15723;55.684;37.928;2023-01-28T06:32:40;100931.50;;;-1.59;74.62
28510;BME280;15723;55.684;37.928;2023-01-28T06:35:07;100928.81;;;-1.81;74.36
28510;BME280;15723;55.684;37.928;2023-01-28T06:37:33;100930.59;;;-1.70;74.30
28510;BME280;15723;55.684;37.928;2023-01-28T06:40:00;100931.50;;;-1.52;74.02
28510;BME280;15723;55.684;37.928;2023-01-28T06:42:26;100939.47;;;-1.63;73.65
28510;BME280;15723;55.684;37.928;2023-01-28T06:44:53;100937.72;;;-1.67;73.74
28510;BME280;15723;55.684;37.928;2023-01-28T06:47:19;100947.47;;;-1.54;73.76
28510;BME280;15723;55.684;37.928;2023-01-28T06:49:45;100938.59;;;-1.70;73.56
28510;BME280;15723;55.684;37.928;2023-01-28T06:52:11;100931.50;;;-1.66;73.64
28510;BME280;15723;55.684;37.928;2023-01-28T06:54:38;100940.34;;;-1.82;73.52
28510;BME280;15723;55.684;37.928;2023-01-28T06:57:04;100943.84;;;-1.91;73.49
28510;BME280;15723;55.684;37.928;2023-01-28T06:59:30;100936.75;;;-1.89;73.62
28510;BME280;15723;55.684;37.928;2023-01-28T07:01:56;100946.56;;;-1.85;73.74
28510;BME280;15723;55.684;37.928;2023-01-28T07:04:23;100943.03;;;-1.73;73.93
28510;BME280;15723;55.684;37.928;2023-01-28T07:06:49;100943.91;;;-1.80;73.07
28510;BME280;15723;55.684;37.928;2023-01-28T07:09:15;100942.16;;;-1.57;72.64
28510;BME280;15723;55.684;37.928;2023-01-28T07:11:41;100942.13;;;-1.68;72.58
28510;BME280;15723;55.684;37.928;2023-01-28T07:14:08;100945.69;;;-1.63;72.58
28510;BME280;15723;55.684;37.928;2023-01-28T07:16:34;100947.47;;;-1.65;72.53
28510;BME280;15723;55.684;37.928;2023-01-28T07:19:00;100944.81;;;-1.63;72.23
28510;BME280;15723;55.684;37.928;2023-01-28T07:21:27;100951.91;;;-1.53;72.78
28510;BME280;15723;55.684;37.928;2023-01-28T07:23:53;100951.00;;;-1.70;72.37
28510;BME280;15723;55.684;37.928;2023-01-28T07:26:19;100953.72;;;-1.41;72.30
28510;BME280;15723;55.684;37.928;2023-01-28T07:28:45;100956.34;;;-1.53;72.31
28510;BME280;15723;55.684;37.928;2023-01-28T07:31:11;100946.63;;;-1.44;71.72
28510;BME280;15723;55.684;37.928;2023-01-28T07:33:38;100950.16;;;-1.37;71.78
28510;BME280;15723;55.684;37.928;2023-01-28T07:36:04;100947.50;;;-1.34;72.00
28510;BME280;15723;55.684;37.928;2023-01-28T07:38:30;100944.84;;;-1.23;71.47
28510;BME280;15723;55.684;37.928;2023-01-28T07:40:57;100934.13;;;-0.81;71.13
28510;BME280;15723;55.684;37.928;2023-01-28T07:43:23;100943.94;;;-1.01;70.75
28510;BME280;15723;55.684;37.928;2023-01-28T07:45:49;100935.06;;;-1.15;70.23
28510;BME280;15723;55.684;37.928;2023-01-28T07:48:15;100929.75;;;-1.06;70.75
28510;BME280;15723;55.684;37.928;2023-01-28T07:50:42;100944.84;;;-1.30;70.79
28510;BME280;15723;55.684;37.928;2023-01-28T07:53:10;100937.72;;;-1.00;70.39
28510;BME280;15723;55.684;37.928;2023-01-28T07:55:37;100935.97;;;-1.07;70.42
28510;BME280;15723;55.684;37.928;2023-01-28T07:58:05;100940.38;;;-1.12;70.35
28510;BME280;15723;55.684;37.928;2023-01-28T08:00:33;100938.63;;;-1.41;70.22
28510;BME280;15723;55.684;37.928;2023-01-28T08:03:04;100936.84;;;-1.27;70.65
28510;BME280;15723;55.684;37.928;2023-01-28T08:05:56;100941.28;;;-1.09;69.99
28510;BME280;15723;55.684;37.928;2023-01-28T08:08:24;100939.53;;;-1.08;69.59
28510;BME280;15723;55.684;37.928;2023-01-28T08:10:51;100941.25;;;-1.50;70.13
28510;BME280;15723;55.684;37.928;2023-01-28T08:13:18;100934.19;;;-0.99;70.03
28510;BME280;15723;55.684;37.928;2023-01-28T08:15:45;100936.84;;;-1.36;69.81
28510;BME280;15723;55.684;37.928;2023-01-28T08:18:13;100935.94;;;-1.21;69.79
28510;BME280;15723;55.684;37.928;2023-01-28T08:20:40;100925.28;;;-0.97;69.48
28510;BME280;15723;55.684;37.928;2023-01-28T08:23:12;100937.72;;;-1.18;69.80
28510;BME280;15723;55.684;37.928;2023-01-28T08:25:39;100935.97;;;-1.10;69.43
28510;BME280;15723;55.684;37.928;2023-01-28T08:28:06;100930.59;;;-0.95;69.73
28510;BME280;15723;55.684;37.928;2023-01-28T08:30:33;100937.72;;;-1.29;69.80
28510;BME280;15723;55.684;37.928;2023-01-28T08:33:00;100933.28;;;-1.22;69.60
28510;BME280;15723;55.684;37.928;2023-01-28T08:35:27;100933.25;;;-0.86;69.71
28510;BME280;15723;55.684;37.928;2023-01-28T08:37:53;100929.69;;;-0.70;68.83
28510;BME280;15723;55.684;37.928;2023-01-28T08:40:20;100927.06;;;-0.94;68.79
28510;BME280;15723;55.684;37.928;2023-01-28T08:42:47;100934.16;;;-0.98;69.14
28510;BME280;15723;55.684;37.928;2023-01-28T08:45:14;100927.03;;;-0.80;68.72
28510;BME280;15723;55.684;37.928;2023-01-28T08:48:10;100929.63;;;-0.53;68.19
28510;BME280;15723;55.684;37.928;2023-01-28T08:50:38;100925.22;;;-0.65;67.97
28510;BME280;15723;55.684;37.928;2023-01-28T08:53:09;100929.59;;;-0.45;68.03
28510;BME280;15723;55.684;37.928;2023-01-28T08:55:35;100929.56;;;-0.42;67.47
28510;BME280;15723;55.684;37.928;2023-01-28T08:58:03;100929.66;;;-0.60;67.06
28510;BME280;15723;55.684;37.928;2023-01-28T09:00:30;100935.06;;;-1.03;68.09
28510;BME280;15723;55.684;37.928;2023-01-28T09:02:56;100923.19;;;0.03;66.22
28510;BME280;15723;55.684;37.928;2023-01-28T09:05:23;100915.19;;;-0.06;66.09
28510;BME280;15723;55.684;37.928;2023-01-28T09:07:49;100919.72;;;-0.22;65.74
28510;BME280;15723;55.684;37.928;2023-01-28T09:10:16;100914.56;;;-0.80;67.39
28510;BME280;15723;55.684;37.928;2023-01-28T09:12:45;100930.63;;;-1.16;68.04
28510;BME280;15723;55.684;37.928;2023-01-28T09:15:12;100918.13;;;-0.70;67.67
28510;BME280;15723;55.684;37.928;2023-01-28T09:17:39;100911.75;;;-0.29;66.64
28510;BME280;15723;55.684;37.928;2023-01-28T09:20:06;100908.03;;;0.05;66.23
28510;BME280;15723;55.684;37.928;2023-01-28T09:22:33;100911.38;;;0.36;64.80
28510;BME280;15723;55.684;37.928;2023-01-28T09:24:59;100899.59;;;0.65;63.58
28510;BME280;15723;55.684;37.928;2023-01-28T09:27:25;100899.50;;;0.72;63.38
28510;BME280;15723;55.684;37.928;2023-01-28T09:29:51;100907.28;;;-0.24;65.52
28510;BME280;15723;55.684;37.928;2023-01-28T09:32:18;100910.94;;;-0.53;67.08
28510;BME280;15723;55.684;37.928;2023-01-28T09:34:44;100916.38;;;-0.88;67.19
28510;BME280;15723;55.684;37.928;2023-01-28T09:37:10;100909.22;;;-0.75;67.60
28510;BME280;15723;55.684;37.928;2023-01-28T09:39:37;100910.03;;;-0.44;67.34
28510;BME280;15723;55.684;37.928;2023-01-28T09:42:15;100906.44;;;-0.40;66.52
28510;BME280;15723;55.684;37.928;2023-01-28T09:47:50;100908.13;;;-0.15;65.98
28510;BME280;15723;55.684;37.928;2023-01-28T09:50:50;100904.78;;;-0.76;66.85
28510;BME280;15723;55.684;37.928;2023-01-28T09:55:50;100905.69;;;-0.85;67.83
28510;BME280;15723;55.684;37.928;2023-01-28T09:58:19;100895.94;;;-0.86;67.68
28510;BME280;15723;55.684;37.928;2023-01-28T10:03:46;100889.63;;;-0.54;67.91
28510;BME280;15723;55.684;37.928;2023-01-28T10:09:18;100883.25;;;-0.18;66.56
28510;BME280;15723;55.684;37.928;2023-01-28T10:12:15;100878.84;;;-0.25;67.38
28510;BME280;15723;55.684;37.928;2023-01-28T10:15:20;100877.09;;;-0.34;66.08
28510;BME280;15723;55.684;37.928;2023-01-28T10:17:58;100875.84;;;0.25;65.11
28510;BME280;15723;55.684;37.928;2023-01-28T10:20:29;100870.97;;;0.79;63.73
28510;BME280;15723;55.684;37.928;2023-01-28T10:23:04;100879.75;;;-0.28;65.32
28510;BME280;15723;55.684;37.928;2023-01-28T10:25:33;100870.44;;;0.39;65.30
28510;BME280;15723;55.684;37.928;2023-01-28T10:28:01;100864.50;;;-0.08;66.62
28510;BME280;15723;55.684;37.928;2023-01-28T10:30:32;100864.34;;;0.17;65.83
28510;BME280;15723;55.684;37.928;2023-01-28T10:33:23;100860.16;;;-0.25;66.42
28510;BME280;15723;55.684;37.928;2023-01-28T10:35:55;100862.88;;;-0.33;67.16
28510;BME280;15723;55.684;37.928;2023-01-28T10:38:23;100864.38;;;0.11;65.99
28510;BME280;15723;55.684;37.928;2023-01-28T10:40:51;100863.63;;;-0.14;66.58
28510;BME280;15723;55.684;37.928;2023-01-28T10:43:25;100855.22;;;0.45;65.56
28510;BME280;15723;55.684;37.928;2023-01-28T10:46:02;100853.06;;;0.87;64.21
28510;BME280;15723;55.684;37.928;2023-01-28T10:48:53;100852.66;;;0.31;65.21
28510;BME280;15723;55.684;37.928;2023-01-28T10:51:30;100851.25;;;-0.26;66.29
28510;BME280;15723;55.684;37.928;2023-01-28T10:53:56;100855.69;;;-0.25;67.60
28510;BME280;15723;55.684;37.928;2023-01-28T10:56:26;100850.38;;;-0.28;66.69
28510;BME280;15723;55.684;37.928;2023-01-28T10:59:16;100838.34;;;0.40;65.68
28510;BME280;15723;55.684;37.928;2023-01-28T11:01:49;100850.31;;;-0.19;66.61
28510;BME280;15723;55.684;37.928;2023-01-28T11:04:28;100843.13;;;-0.05;67.30
28510;BME280;15723;55.684;37.928;2023-01-28T11:07:13;100846.00;;;-0.46;67.61
28510;BME280;15723;55.684;37.928;2023-01-28T11:09:45;100843.25;;;-0.26;67.78
28510;BME280;15723;55.684;37.928;2023-01-28T11:12:19;100840.31;;;0.15;67.41
28510;BME280;15723;55.684;37.928;2023-01-28T11:15:15;100845.09;;;-0.40;67.43
28510;BME280;15723;55.684;37.928;2023-01-28T11:17:47;100833.19;;;0.16;65.52
28510;BME280;15723;55.684;37.928;2023-01-28T11:20:23;100826.00;;;0.25;66.43
28510;BME280;15723;55.684;37.928;2023-01-28T11:22:50;100836.31;;;-0.62;67.07
28510;BME280;15723;55.684;37.928;2023-01-28T11:25:32;100835.09;;;0.02;66.44
28510;BME280;15723;55.684;37.928;2023-01-28T11:28:01;100829.06;;;-0.39;66.56
28510;BME280;15723;55.684;37.928;2023-01-28T11:30:36;100835.38;;;-0.52;67.24
28510;BME280;15723;55.684;37.928;2023-01-28T11:35:37;100834.25;;;-0.08;66.94
28510;BME280;15723;55.684;37.928;2023-01-28T11:38:16;100831.72;;;-0.28;66.20
28510;BME280;15723;55.684;37.928;2023-01-28T11:41:12;100835.09;;;0.02;66.73
28510;BME280;15723;55.684;37.928;2023-01-28T11:43:39;100827.97;;;-0.04;66.44
28510;BME280;15723;55.684;37.928;2023-01-28T11:46:22;100820.84;;;-0.02;66.52
28510;BME280;15723;55.684;37.928;2023-01-28T11:51:48;100820.09;;;-0.21;67.12
28510;BME280;15723;55.684;37.928;2023-01-28T11:57:29;100805.03;;;0.79;63.44
28510;BME280;15723;55.684;37.928;2023-01-28T12:05:50;100788.00;;;0.88;63.62
28510;BME280;15723;55.684;37.928;2023-01-28T12:08:28;100781.84;;;0.83;63.50
28510;BME280;15723;55.684;37.928;2023-01-28T12:11:32;100782.31;;;0.31;63.96
28510;BME280;15723;55.684;37.928;2023-01-28T12:14:41;100779.75;;;0.20;65.56
28510;BME280;15723;55.684;37.928;2023-01-28T12:33:40;100781.72;;;-0.06;66.05
28510;BME280;15723;55.684;37.928;2023-01-28T12:39:16;100775.41;;;0.09;65.10
28510;BME280;15723;55.684;37.928;2023-01-28T12:41:49;100780.13;;;-0.27;66.78
28510;BME280;15723;55.684;37.928;2023-01-28T12:44:45;100772.13;;;-0.30;67.49
28510;BME280;15723;55.684;37.928;2023-01-28T12:47:21;100778.47;;;-0.52;68.21
28510;BME280;15723;55.684;37.928;2023-01-28T12:50:10;100769.53;;;-0.42;67.93
28510;BME280;15723;55.684;37.928;2023-01-28T12:52:52;100768.09;;;0.29;66.05
28510;BME280;15723;55.684;37.928;2023-01-28T12:55:42;100766.22;;;0.42;64.70
28510;BME280;15723;55.684;37.928;2023-01-28T12:58:16;100768.94;;;0.34;65.41
28510;BME280;15723;55.684;37.928;2023-01-28T13:01:06;100762.91;;;1.00;63.66
28510;BME280;15723;55.684;37.928;2023-01-28T13:03:59;100759.94;;;0.47;64.06
28510;BME280;15723;55.684;37.928;2023-01-28T13:06:42;100760.72;;;0.55;64.27
28510;BME280;15723;55.684;37.928;2023-01-28T13:09:23;100752.59;;;-0.40;67.21
28510;BME280;15723;55.684;37.928;2023-01-28T13:11:52;100763.28;;;-0.43;67.77
28510;BME280;15723;55.684;37.928;2023-01-28T13:14:23;100762.16;;;-0.08;67.44
28510;BME280;15723;55.684;37.928;2023-01-28T13:16:51;100760.34;;;-0.03;67.04
28510;BME280;15723;55.684;37.928;2023-01-28T13:21:44;100764.38;;;-0.71;67.98
28510;BME280;15723;55.684;37.928;2023-01-28T13:26:53;100760.28;;;0.08;67.23
28510;BME280;15723;55.684;37.928;2023-01-28T13:31:51;100765.97;;;-0.37;67.20
28510;BME280;15723;55.684;37.928;2023-01-28T13:37:06;100750.81;;;-0.38;68.08
28510;BME280;15723;55.684;37.928;2023-01-28T13:39:38;100750.34;;;0.25;66.73
28510;BME280;15723;55.684;37.928;2023-01-28T13:42:26;100753.22;;;0.01;66.60
28510;BME280;15723;55.684;37.928;2023-01-28T13:44:54;100761.16;;;0.11;66.59
28510;BME280;15723;55.684;37.928;2023-01-28T13:47:32;100743.72;;;-0.40;67.42
28510;BME280;15723;55.684;37.928;2023-01-28T13:50:05;100744.84;;;-0.73;68.47
28510;BME280;15723;55.684;37.928;2023-01-28T13:52:59;100743.00;;;-0.65;68.25
28510;BME280;15723;55.684;37.928;2023-01-28T13:55:35;100740.19;;;-0.42;67.53
28510;BME280;15723;55.684;37.928;2023-01-28T14:14:47;100731.66;;;0.23;65.77
28510;BME280;15723;55.684;37.928;2023-01-28T14:17:41;100719.00;;;0.45;64.95
28510;BME280;15723;55.684;37.928;2023-01-28T14:22:42;100713.94;;;0.16;65.46
28510;BME280;15723;55.684;37.928;2023-01-28T14:25:21;100719.03;;;0.41;65.34
28510;BME280;15723;55.684;37.928;2023-01-28T14:27:53;100714.47;;;0.50;64.47
28510;BME280;15723;55.684;37.928;2023-01-28T14:33:27;100706.28;;;-0.25;67.60
28510;BME280;15723;55.684;37.928;2023-01-28T14:35:54;100708.91;;;-0.22;67.76
28510;BME280;15723;55.684;37.928;2023-01-28T14:38:23;100711.31;;;0.10;67.18
28510;BME280;15723;55.684;37.928;2023-01-28T14:40:53;100709.78;;;-0.18;67.84